sensor_id;sensor_type;location;lat;lon;timestamp;P1;durP1;ratioP1;P2;durP2;ratioP2
51082;SDS011;37131;42.694;23.350;2023-02-28T00:00:12;13.55;;;5.80;;
51082;SDS011;37131;42.694;23.350;2023-02-28T00:02:39;17.30;;;5.90;;
51082;SDS011;37131;42.694;23.350;2023-02-28T00:05:07;14.10;;;5.60;;
51082;SDS011;37131;42.694;23.350;2023-02-28T00:07:35;14.00;;;6.30;;
51082;SDS011;37131;42.694;23.350;2023-02-28T00:10:00;14.27;;;5.78;;
51082;SDS011;37131;42.694;23.350;2023-02-28T00:12:27;15.63;;;5.90;;
51082;SDS011;37131;42.694;23.350;2023-02-28T00:14:52;21.30;;;6.35;;
51082;SDS011;37131;42.694;23.350;2023-02-28T00:17:18;15.00;;;5.43;;
51082;SDS011;37131;42.694;23.350;2023-02-28T00:19:46;15.88;;;6.20;;
51082;SDS011;37131;42.694;23.350;2023-02-28T00:22:13;20.13;;;6.53;;
51082;SDS011;37131;42.694;23.350;2023-02-28T00:24:38;16.02;;;6.20;;
51082;SDS011;37131;42.694;23.350;2023-02-28T00:27:04;16.48;;;5.78;;
51082;SDS011;37131;42.694;23.350;2023-02-28T00:29:29;18.13;;;6.55;;
51082;SDS011;37131;42.694;23.350;2023-02-28T00:31:54;16.90;;;6.22;;
51082;SDS011;37131;42.694;23.350;2023-02-28T00:34:20;13.05;;;5.05;;
51082;SDS011;37131;42.694;23.350;2023-02-28T00:36:45;19.55;;;6.68;;
51082;SDS011;37131;42.694;23.350;2023-02-28T00:39:13;18.58;;;7.43;;
51082;SDS011;37131;42.694;23.350;2023-02-28T00:41:39;18.10;;;7.25;;
51082;SDS011;37131;42.694;23.350;2023-02-28T00:44:04;20.88;;;7.07;;
51082;SDS011;37131;42.694;23.350;2023-02-28T00:46:30;18.42;;;7.22;;
51082;SDS011;37131;42.694;23.350;2023-02-28T00:48:55;21.10;;;7.65;;
51082;SDS011;37131;42.694;23.350;2023-02-28T00:51:21;20.50;;;7.55;;
51082;SDS011;37131;42.694;23.350;2023-02-28T00:53:46;17.48;;;6.80;;
51082;SDS011;37131;42.694;23.350;2023-02-28T00:56:11;14.77;;;6.07;;
51082;SDS011;37131;42.694;23.350;2023-02-28T00:58:37;18.00;;;7.25;;
51082;SDS011;37131;42.694;23.350;2023-02-28T01:01:02;16.10;;;6.35;;
51082;SDS011;37131;42.694;23.350;2023-02-28T01:03:28;18.35;;;7.72;;
51082;SDS011;37131;42.694;23.350;2023-02-28T01:05:53;15.95;;;6.05;;
51082;SDS011;37131;42.694;23.350;2023-02-28T01:08:19;16.27;;;6.60;;
51082;SDS011;37131;42.694;23.350;2023-02-28T01:10:44;15.52;;;6.38;;
51082;SDS011;37131;42.694;23.350;2023-02-28T01:13:10;17.27;;;6.55;;
51082;SDS011;37131;42.694;23.350;2023-02-28T01:15:38;15.00;;;5.78;;
51082;SDS011;37131;42.694;23.350;2023-02-28T01:18:07;16.05;;;6.40;;
51082;SDS011;37131;42.694;23.350;2023-02-28T01:20:32;15.38;;;5.43;;
51082;SDS011;37131;42.694;23.350;2023-02-28T01:22:57;14.65;;;6.18;;
51082;SDS011;37131;42.694;23.350;2023-02-28T01:25:23;15.73;;;6.38;;
51082;SDS011;37131;42.694;23.350;2023-02-28T01:27:48;16.02;;;6.20;;
51082;SDS011;37131;42.694;23.350;2023-02-28T01:30:14;15.95;;;6.32;;
51082;SDS011;37131;42.694;23.350;2023-02-28T01:32:39;13.23;;;5.93;;
51082;SDS011;37131;42.694;23.350;2023-02-28T01:35:05;17.23;;;6.57;;
51082;SDS011;37131;42.694;23.350;2023-02-28T01:37:30;14.55;;;5.57;;
51082;SDS011;37131;42.694;23.350;2023-02-28T01:39:55;19.38;;;5.88;;
51082;SDS011;37131;42.694;23.350;2023-02-28T01:42:21;14.52;;;5.88;;
51082;SDS011;37131;42.694;23.350;2023-02-28T01:47:36;13.15;;;5.72;;
51082;SDS011;37131;42.694;23.350;2023-02-28T01:50:07;15.85;;;6.38;;
51082;SDS011;37131;42.694;23.350;2023-02-28T01:52:37;16.85;;;6.45;;
51082;SDS011;37131;42.694;23.350;2023-02-28T01:55:03;15.55;;;6.40;;
51082;SDS011;37131;42.694;23.350;2023-02-28T01:57:35;17.65;;;6.43;;
51082;SDS011;37131;42.694;23.350;2023-02-28T02:00:12;18.73;;;7.05;;
51082;SDS011;37131;42.694;23.350;2023-02-28T02:02:43;15.85;;;6.93;;
51082;SDS011;37131;42.694;23.350;2023-02-28T02:05:18;20.38;;;7.38;;
51082;SDS011;37131;42.694;23.350;2023-02-28T02:07:46;21.77;;;8.75;;
51082;SDS011;37131;42.694;23.350;2023-02-28T02:10:16;20.50;;;7.93;;
51082;SDS011;37131;42.694;23.350;2023-02-28T02:18:18;17.60;;;7.00;;
51082;SDS011;37131;42.694;23.350;2023-02-28T02:25:53;28.38;;;9.27;;
51082;SDS011;37131;42.694;23.350;2023-02-28T02:42:29;26.95;;;9.23;;
51082;SDS011;37131;42.694;23.350;2023-02-28T02:45:09;23.77;;;8.18;;
51082;SDS011;37131;42.694;23.350;2023-02-28T02:47:46;29.17;;;9.15;;
51082;SDS011;37131;42.694;23.350;2023-02-28T02:50:14;25.33;;;8.63;;
51082;SDS011;37131;42.694;23.350;2023-02-28T02:52:48;28.85;;;9.65;;
51082;SDS011;37131;42.694;23.350;2023-02-28T02:55:18;26.13;;;8.98;;
51082;SDS011;37131;42.694;23.350;2023-02-28T03:00:16;31.73;;;10.18;;
51082;SDS011;37131;42.694;23.350;2023-02-28T03:02:44;31.27;;;10.43;;
51082;SDS011;37131;42.694;23.350;2023-02-28T03:05:18;32.28;;;9.05;;
51082;SDS011;37131;42.694;23.350;2023-02-28T03:07:46;26.38;;;8.68;;
51082;SDS011;37131;42.694;23.350;2023-02-28T03:10:28;23.90;;;7.22;;
51082;SDS011;37131;42.694;23.350;2023-02-28T03:13:32;24.45;;;8.60;;
51082;SDS011;37131;42.694;23.350;2023-02-28T03:18:58;24.70;;;8.20;;
51082;SDS011;37131;42.694;23.350;2023-02-28T03:25:08;20.08;;;6.18;;
51082;SDS011;37131;42.694;23.350;2023-02-28T03:32:55;21.65;;;7.43;;
51082;SDS011;37131;42.694;23.350;2023-02-28T03:35:24;27.25;;;8.23;;
51082;SDS011;37131;42.694;23.350;2023-02-28T03:37:58;22.85;;;7.35;;
51082;SDS011;37131;42.694;23.350;2023-02-28T03:40:31;27.05;;;9.23;;
51082;SDS011;37131;42.694;23.350;2023-02-28T03:43:01;22.27;;;7.93;;
51082;SDS011;37131;42.694;23.350;2023-02-28T03:45:33;24.50;;;8.15;;
51082;SDS011;37131;42.694;23.350;2023-02-28T03:48:19;25.77;;;8.93;;
51082;SDS011;37131;42.694;23.350;2023-02-28T03:50:47;25.77;;;9.75;;
51082;SDS011;37131;42.694;23.350;2023-02-28T03:53:39;28.17;;;8.73;;
51082;SDS011;37131;42.694;23.350;2023-02-28T03:56:06;30.35;;;10.02;;
51082;SDS011;37131;42.694;23.350;2023-02-28T03:58:47;25.38;;;9.80;;
51082;SDS011;37131;42.694;23.350;2023-02-28T04:01:37;31.38;;;10.05;;
51082;SDS011;37131;42.694;23.350;2023-02-28T04:04:13;28.67;;;8.50;;
51082;SDS011;37131;42.694;23.350;2023-02-28T04:06:39;26.60;;;9.38;;
51082;SDS011;37131;42.694;23.350;2023-02-28T04:09:06;29.40;;;11.38;;
51082;SDS011;37131;42.694;23.350;2023-02-28T04:11:35;33.28;;;9.57;;
51082;SDS011;37131;42.694;23.350;2023-02-28T04:14:03;33.17;;;11.40;;
51082;SDS011;37131;42.694;23.350;2023-02-28T04:16:32;25.80;;;9.20;;
51082;SDS011;37131;42.694;23.350;2023-02-28T04:18:59;32.40;;;10.00;;
51082;SDS011;37131;42.694;23.350;2023-02-28T04:21:29;26.33;;;9.48;;
51082;SDS011;37131;42.694;23.350;2023-02-28T04:23:55;31.95;;;9.88;;
51082;SDS011;37131;42.694;23.350;2023-02-28T04:26:27;37.75;;;10.27;;
51082;SDS011;37131;42.694;23.350;2023-02-28T04:28:57;32.80;;;11.10;;
51082;SDS011;37131;42.694;23.350;2023-02-28T04:31:23;29.70;;;9.73;;
51082;SDS011;37131;42.694;23.350;2023-02-28T04:33:48;35.08;;;9.80;;
51082;SDS011;37131;42.694;23.350;2023-02-28T04:36:14;37.33;;;10.20;;
51082;SDS011;37131;42.694;23.350;2023-02-28T04:38:42;28.50;;;9.95;;
51082;SDS011;37131;42.694;23.350;2023-02-28T04:41:08;23.88;;;9.38;;
51082;SDS011;37131;42.694;23.350;2023-02-28T04:43:34;35.17;;;10.25;;
51082;SDS011;37131;42.694;23.350;2023-02-28T04:46:00;24.65;;;8.82;;
51082;SDS011;37131;42.694;23.350;2023-02-28T04:48:28;25.23;;;9.27;;
51082;SDS011;37131;42.694;23.350;2023-02-28T04:50:55;34.33;;;10.98;;
51082;SDS011;37131;42.694;23.350;2023-02-28T04:53:24;37.58;;;10.52;;
51082;SDS011;37131;42.694;23.350;2023-02-28T04:55:49;29.35;;;9.18;;
51082;SDS011;37131;42.694;23.350;2023-02-28T04:58:15;31.88;;;9.75;;
51082;SDS011;37131;42.694;23.350;2023-02-28T05:00:41;41.53;;;10.98;;
51082;SDS011;37131;42.694;23.350;2023-02-28T05:03:06;35.28;;;9.90;;
51082;SDS011;37131;42.694;23.350;2023-02-28T05:05:32;32.92;;;10.13;;
51082;SDS011;37131;42.694;23.350;2023-02-28T05:07:57;36.58;;;10.48;;
51082;SDS011;37131;42.694;23.350;2023-02-28T05:10:23;38.85;;;11.05;;
51082;SDS011;37131;42.694;23.350;2023-02-28T05:12:48;28.42;;;9.80;;
51082;SDS011;37131;42.694;23.350;2023-02-28T05:15:14;32.25;;;10.05;;
51082;SDS011;37131;42.694;23.350;2023-02-28T05:17:40;33.05;;;10.50;;
51082;SDS011;37131;42.694;23.350;2023-02-28T05:20:07;37.00;;;11.20;;
51082;SDS011;37131;42.694;23.350;2023-02-28T05:22:35;40.17;;;11.77;;
51082;SDS011;37131;42.694;23.350;2023-02-28T05:25:02;33.67;;;10.77;;
51082;SDS011;37131;42.694;23.350;2023-02-28T05:27:27;34.95;;;10.60;;
51082;SDS011;37131;42.694;23.350;2023-02-28T05:29:53;28.70;;;8.57;;
51082;SDS011;37131;42.694;23.350;2023-02-28T05:32:18;41.33;;;12.68;;
51082;SDS011;37131;42.694;23.350;2023-02-28T05:34:44;37.75;;;12.38;;
51082;SDS011;37131;42.694;23.350;2023-02-28T05:37:11;41.38;;;13.32;;
51082;SDS011;37131;42.694;23.350;2023-02-28T05:39:38;39.67;;;13.48;;
51082;SDS011;37131;42.694;23.350;2023-02-28T05:42:03;37.83;;;11.50;;
51082;SDS011;37131;42.694;23.350;2023-02-28T05:44:29;43.80;;;13.45;;
51082;SDS011;37131;42.694;23.350;2023-02-28T05:46:55;47.53;;;12.30;;
51082;SDS011;37131;42.694;23.350;2023-02-28T05:49:20;42.33;;;13.68;;
51082;SDS011;37131;42.694;23.350;2023-02-28T05:51:46;41.90;;;13.20;;
51082;SDS011;37131;42.694;23.350;2023-02-28T05:54:11;41.28;;;12.25;;
51082;SDS011;37131;42.694;23.350;2023-02-28T05:56:37;41.85;;;13.07;;
51082;SDS011;37131;42.694;23.350;2023-02-28T05:59:08;40.50;;;12.05;;
51082;SDS011;37131;42.694;23.350;2023-02-28T06:04:02;43.17;;;12.75;;
51082;SDS011;37131;42.694;23.350;2023-02-28T06:06:29;46.90;;;14.55;;
51082;SDS011;37131;42.694;23.350;2023-02-28T06:08:55;40.63;;;12.52;;
51082;SDS011;37131;42.694;23.350;2023-02-28T06:11:21;42.90;;;12.25;;
51082;SDS011;37131;42.694;23.350;2023-02-28T06:13:52;41.10;;;13.02;;
51082;SDS011;37131;42.694;23.350;2023-02-28T06:16:20;41.20;;;12.23;;
51082;SDS011;37131;42.694;23.350;2023-02-28T06:18:45;41.78;;;12.30;;
51082;SDS011;37131;42.694;23.350;2023-02-28T06:21:11;34.67;;;11.07;;
51082;SDS011;37131;42.694;23.350;2023-02-28T06:23:37;34.35;;;11.30;;
51082;SDS011;37131;42.694;23.350;2023-02-28T06:26:03;33.70;;;10.60;;
51082;SDS011;37131;42.694;23.350;2023-02-28T06:28:29;31.05;;;11.93;;
51082;SDS011;37131;42.694;23.350;2023-02-28T06:30:54;35.00;;;11.13;;
51082;SDS011;37131;42.694;23.350;2023-02-28T06:33:20;31.83;;;10.50;;
51082;SDS011;37131;42.694;23.350;2023-02-28T06:35:51;35.95;;;11.00;;
51082;SDS011;37131;42.694;23.350;2023-02-28T06:38:17;32.60;;;10.88;;
51082;SDS011;37131;42.694;23.350;2023-02-28T06:40:44;27.75;;;10.15;;
51082;SDS011;37131;42.694;23.350;2023-02-28T06:43:10;29.65;;;10.43;;
51082;SDS011;37131;42.694;23.350;2023-02-28T06:45:41;27.00;;;9.50;;
51082;SDS011;37131;42.694;23.350;2023-02-28T06:48:07;29.95;;;11.95;;
51082;SDS011;37131;42.694;23.350;2023-02-28T06:50:32;31.48;;;11.75;;
51082;SDS011;37131;42.694;23.350;2023-02-28T06:52:58;22.02;;;9.00;;
51082;SDS011;37131;42.694;23.350;2023-02-28T06:55:23;33.70;;;11.75;;
51082;SDS011;37131;42.694;23.350;2023-02-28T06:57:48;35.65;;;12.05;;
51082;SDS011;37131;42.694;23.350;2023-02-28T07:00:15;34.05;;;11.35;;
51082;SDS011;37131;42.694;23.350;2023-02-28T07:02:41;35.53;;;11.50;;
51082;SDS011;37131;42.694;23.350;2023-02-28T07:05:06;32.00;;;10.90;;
51082;SDS011;37131;42.694;23.350;2023-02-28T07:07:32;33.80;;;11.77;;
51082;SDS011;37131;42.694;23.350;2023-02-28T07:09:58;30.67;;;10.60;;
51082;SDS011;37131;42.694;23.350;2023-02-28T07:12:23;31.90;;;11.00;;
51082;SDS011;37131;42.694;23.350;2023-02-28T07:14:49;32.60;;;11.18;;
51082;SDS011;37131;42.694;23.350;2023-02-28T07:17:14;30.60;;;11.00;;
51082;SDS011;37131;42.694;23.350;2023-02-28T07:19:40;35.55;;;12.70;;
51082;SDS011;37131;42.694;23.350;2023-02-28T07:22:05;31.45;;;11.40;;
51082;SDS011;37131;42.694;23.350;2023-02-28T07:24:31;30.33;;;10.52;;
51082;SDS011;37131;42.694;23.350;2023-02-28T07:26:57;31.45;;;12.07;;
51082;SDS011;37131;42.694;23.350;2023-02-28T07:29:22;32.03;;;11.38;;
51082;SDS011;37131;42.694;23.350;2023-02-28T07:31:48;31.95;;;11.05;;
51082;SDS011;37131;42.694;23.350;2023-02-28T07:34:15;32.15;;;11.45;;
51082;SDS011;37131;42.694;23.350;2023-02-28T07:36:41;30.35;;;11.15;;
51082;SDS011;37131;42.694;23.350;2023-02-28T07:39:06;23.25;;;9.25;;
51082;SDS011;37131;42.694;23.350;2023-02-28T07:41:33;25.70;;;11.20;;
51082;SDS011;37131;42.694;23.350;2023-02-28T07:44:02;31.13;;;9.90;;
51082;SDS011;37131;42.694;23.350;2023-02-28T07:46:28;28.38;;;11.02;;
51082;SDS011;37131;42.694;23.350;2023-02-28T07:48:59;22.98;;;9.80;;
51082;SDS011;37131;42.694;23.350;2023-02-28T07:51:25;22.05;;;9.43;;
51082;SDS011;37131;42.694;23.350;2023-02-28T07:53:50;21.02;;;9.35;;
51082;SDS011;37131;42.694;23.350;2023-02-28T07:56:16;26.67;;;10.63;;
51082;SDS011;37131;42.694;23.350;2023-02-28T07:58:41;24.55;;;9.77;;
51082;SDS011;37131;42.694;23.350;2023-02-28T08:01:07;26.30;;;10.52;;
51082;SDS011;37131;42.694;23.350;2023-02-28T08:03:34;24.98;;;10.05;;
51082;SDS011;37131;42.694;23.350;2023-02-28T08:06:00;26.17;;;11.55;;
51082;SDS011;37131;42.694;23.350;2023-02-28T08:08:27;30.30;;;11.80;;
51082;SDS011;37131;42.694;23.350;2023-02-28T08:10:57;29.80;;;11.30;;
51082;SDS011;37131;42.694;23.350;2023-02-28T08:13:25;28.30;;;11.63;;
51082;SDS011;37131;42.694;23.350;2023-02-28T08:15:52;26.38;;;11.85;;
51082;SDS011;37131;42.694;23.350;2023-02-28T08:18:19;30.63;;;12.02;;
51082;SDS011;37131;42.694;23.350;2023-02-28T08:20:44;27.45;;;11.50;;
51082;SDS011;37131;42.694;23.350;2023-02-28T08:23:09;28.00;;;10.77;;
51082;SDS011;37131;42.694;23.350;2023-02-28T08:25:35;31.38;;;11.57;;
51082;SDS011;37131;42.694;23.350;2023-02-28T08:28:00;25.83;;;12.38;;
51082;SDS011;37131;42.694;23.350;2023-02-28T08:30:26;28.80;;;12.85;;
51082;SDS011;37131;42.694;23.350;2023-02-28T08:32:51;21.75;;;9.55;;
51082;SDS011;37131;42.694;23.350;2023-02-28T08:35:17;25.33;;;11.13;;
51082;SDS011;37131;42.694;23.350;2023-02-28T08:37:42;24.48;;;11.32;;
51082;SDS011;37131;42.694;23.350;2023-02-28T08:40:08;22.38;;;10.43;;
51082;SDS011;37131;42.694;23.350;2023-02-28T08:42:34;25.02;;;12.07;;
51082;SDS011;37131;42.694;23.350;2023-02-28T08:44:59;29.67;;;11.35;;
51082;SDS011;37131;42.694;23.350;2023-02-28T08:47:25;24.58;;;10.07;;
51082;SDS011;37131;42.694;23.350;2023-02-28T08:49:51;24.00;;;10.02;;
51082;SDS011;37131;42.694;23.350;2023-02-28T08:52:16;24.25;;;9.88;;
51082;SDS011;37131;42.694;23.350;2023-02-28T08:54:41;26.23;;;10.23;;
51082;SDS011;37131;42.694;23.350;2023-02-28T08:57:07;27.33;;;9.02;;
51082;SDS011;37131;42.694;23.350;2023-02-28T08:59:32;17.65;;;7.15;;
51082;SDS011;37131;42.694;23.350;2023-02-28T09:01:58;21.52;;;8.40;;
51082;SDS011;37131;42.694;23.350;2023-02-28T09:04:23;25.50;;;8.43;;
51082;SDS011;37131;42.694;23.350;2023-02-28T09:06:48;20.92;;;7.80;;
51082;SDS011;37131;42.694;23.350;2023-02-28T09:09:14;21.63;;;7.85;;
51082;SDS011;37131;42.694;23.350;2023-02-28T09:11:41;20.88;;;6.88;;
51082;SDS011;37131;42.694;23.350;2023-02-28T09:14:06;21.95;;;7.32;;
51082;SDS011;37131;42.694;23.350;2023-02-28T09:16:32;22.65;;;6.55;;
51082;SDS011;37131;42.694;23.350;2023-02-28T09:18:58;19.42;;;7.50;;
51082;SDS011;37131;42.694;23.350;2023-02-28T09:21:24;28.42;;;7.35;;
51082;SDS011;37131;42.694;23.350;2023-02-28T09:23:49;17.88;;;7.22;;
51082;SDS011;37131;42.694;23.350;2023-02-28T09:26:16;19.83;;;7.32;;
51082;SDS011;37131;42.694;23.350;2023-02-28T09:28:48;21.52;;;6.47;;
51082;SDS011;37131;42.694;23.350;2023-02-28T09:31:15;18.92;;;7.68;;
51082;SDS011;37131;42.694;23.350;2023-02-28T09:33:45;19.77;;;7.28;;
51082;SDS011;37131;42.694;23.350;2023-02-28T09:36:12;16.90;;;6.80;;
51082;SDS011;37131;42.694;23.350;2023-02-28T09:38:37;22.33;;;7.07;;
51082;SDS011;37131;42.694;23.350;2023-02-28T09:41:04;18.33;;;7.40;;
51082;SDS011;37131;42.694;23.350;2023-02-28T09:43:39;20.52;;;7.60;;
51082;SDS011;37131;42.694;23.350;2023-02-28T09:46:14;17.98;;;7.65;;
51082;SDS011;37131;42.694;23.350;2023-02-28T09:48:51;21.27;;;7.60;;
51082;SDS011;37131;42.694;23.350;2023-02-28T09:51:27;17.30;;;6.50;;
51082;SDS011;37131;42.694;23.350;2023-02-28T09:54:20;17.05;;;6.75;;
51082;SDS011;37131;42.694;23.350;2023-02-28T09:56:51;12.20;;;5.60;;
51082;SDS011;37131;42.694;23.350;2023-02-28T10:02:20;17.52;;;6.55;;
51082;SDS011;37131;42.694;23.350;2023-02-28T10:08:05;14.98;;;6.13;;
51082;SDS011;37131;42.694;23.350;2023-02-28T10:15:58;20.27;;;6.65;;
51082;SDS011;37131;42.694;23.350;2023-02-28T10:18:30;22.50;;;6.80;;
51082;SDS011;37131;42.694;23.350;2023-02-28T10:21:09;16.77;;;5.43;;
51082;SDS011;37131;42.694;23.350;2023-02-28T10:29:39;13.93;;;4.53;;
51082;SDS011;37131;42.694;23.350;2023-02-28T10:32:08;18.38;;;5.60;;
51082;SDS011;37131;42.694;23.350;2023-02-28T10:34:39;18.33;;;5.93;;
51082;SDS011;37131;42.694;23.350;2023-02-28T10:37:04;13.55;;;4.10;;
51082;SDS011;37131;42.694;23.350;2023-02-28T10:39:37;13.77;;;5.40;;
51082;SDS011;37131;42.694;23.350;2023-02-28T10:42:05;15.50;;;5.13;;
51082;SDS011;37131;42.694;23.350;2023-02-28T10:44:44;14.68;;;5.30;;
51082;SDS011;37131;42.694;23.350;2023-02-28T10:47:16;13.05;;;4.28;;
51082;SDS011;37131;42.694;23.350;2023-02-28T10:49:48;11.52;;;4.35;;
51082;SDS011;37131;42.694;23.350;2023-02-28T10:52:14;21.48;;;5.28;;
51082;SDS011;37131;42.694;23.350;2023-02-28T10:57:59;18.10;;;6.20;;
51082;SDS011;37131;42.694;23.350;2023-02-28T11:00:25;14.55;;;5.80;;
51082;SDS011;37131;42.694;23.350;2023-02-28T11:02:58;10.52;;;4.90;;
51082;SDS011;37131;42.694;23.350;2023-02-28T11:05:30;22.10;;;7.03;;
51082;SDS011;37131;42.694;23.350;2023-02-28T11:08:03;15.10;;;6.05;;
51082;SDS011;37131;42.694;23.350;2023-02-28T11:10:32;24.13;;;6.80;;
51082;SDS011;37131;42.694;23.350;2023-02-28T11:13:00;20.90;;;6.47;;
51082;SDS011;37131;42.694;23.350;2023-02-28T11:15:30;17.65;;;5.60;;
51082;SDS011;37131;42.694;23.350;2023-02-28T11:20:28;16.20;;;6.28;;
51082;SDS011;37131;42.694;23.350;2023-02-28T11:22:57;14.25;;;5.43;;
51082;SDS011;37131;42.694;23.350;2023-02-28T11:25:25;19.42;;;5.70;;
51082;SDS011;37131;42.694;23.350;2023-02-28T11:27:54;10.23;;;3.75;;
51082;SDS011;37131;42.694;23.350;2023-02-28T11:33:18;19.50;;;5.65;;
51082;SDS011;37131;42.694;23.350;2023-02-28T11:35:48;12.15;;;4.35;;
51082;SDS011;37131;42.694;23.350;2023-02-28T11:38:14;18.25;;;6.25;;
51082;SDS011;37131;42.694;23.350;2023-02-28T11:41:02;23.60;;;7.75;;
51082;SDS011;37131;42.694;23.350;2023-02-28T11:46:20;19.30;;;6.47;;
51082;SDS011;37131;42.694;23.350;2023-02-28T11:49:18;21.25;;;7.05;;
51082;SDS011;37131;42.694;23.350;2023-02-28T11:51:59;15.82;;;5.82;;
51082;SDS011;37131;42.694;23.350;2023-02-28T12:00:06;20.02;;;5.90;;
51082;SDS011;37131;42.694;23.350;2023-02-28T12:11:06;25.38;;;6.22;;
51082;SDS011;37131;42.694;23.350;2023-02-28T12:22:28;19.40;;;5.45;;
51082;SDS011;37131;42.694;23.350;2023-02-28T12:27:40;20.25;;;6.25;;
51082;SDS011;37131;42.694;23.350;2023-02-28T12:32:42;18.95;;;5.90;;
51082;SDS011;37131;42.694;23.350;2023-02-28T12:35:12;22.63;;;6.15;;
51082;SDS011;37131;42.694;23.350;2023-02-28T12:37:48;16.13;;;5.68;;
51082;SDS011;37131;42.694;23.350;2023-02-28T12:40:26;21.25;;;5.85;;
51082;SDS011;37131;42.694;23.350;2023-02-28T12:42:59;16.48;;;6.13;;
51082;SDS011;37131;42.694;23.350;2023-02-28T12:45:51;17.27;;;6.10;;
51082;SDS011;37131;42.694;23.350;2023-02-28T12:51:22;15.90;;;4.95;;
51082;SDS011;37131;42.694;23.350;2023-02-28T12:54:04;18.48;;;5.32;;
51082;SDS011;37131;42.694;23.350;2023-02-28T12:59:22;11.55;;;3.80;;
51082;SDS011;37131;42.694;23.350;2023-02-28T13:05:01;20.90;;;5.32;;
51082;SDS011;37131;42.694;23.350;2023-02-28T13:08:20;16.52;;;4.95;;
51082;SDS011;37131;42.694;23.350;2023-02-28T13:10:49;12.13;;;4.00;;
51082;SDS011;37131;42.694;23.350;2023-02-28T13:13:23;18.23;;;5.60;;
51082;SDS011;37131;42.694;23.350;2023-02-28T13:16:03;14.07;;;4.27;;
51082;SDS011;37131;42.694;23.350;2023-02-28T13:18:31;18.88;;;5.82;;
51082;SDS011;37131;42.694;23.350;2023-02-28T13:21:05;11.63;;;4.65;;
51082;SDS011;37131;42.694;23.350;2023-02-28T13:23:40;15.18;;;4.93;;
51082;SDS011;37131;42.694;23.350;2023-02-28T13:28:58;17.58;;;5.47;;
51082;SDS011;37131;42.694;23.350;2023-02-28T13:34:27;12.60;;;4.68;;
51082;SDS011;37131;42.694;23.350;2023-02-28T13:37:20;14.43;;;5.28;;
51082;SDS011;37131;42.694;23.350;2023-02-28T13:39:47;14.38;;;5.63;;
51082;SDS011;37131;42.694;23.350;2023-02-28T13:42:35;18.65;;;5.68;;
51082;SDS011;37131;42.694;23.350;2023-02-28T13:47:28;9.55;;;3.67;;
51082;SDS011;37131;42.694;23.350;2023-02-28T14:00:59;21.85;;;5.93;;
51082;SDS011;37131;42.694;23.350;2023-02-28T14:06:32;15.38;;;4.93;;
51082;SDS011;37131;42.694;23.350;2023-02-28T14:09:28;15.63;;;5.03;;
51082;SDS011;37131;42.694;23.350;2023-02-28T14:18:01;11.75;;;4.70;;
51082;SDS011;37131;42.694;23.350;2023-02-28T14:20:32;13.20;;;4.93;;
51082;SDS011;37131;42.694;23.350;2023-02-28T14:36:47;14.25;;;4.70;;
51082;SDS011;37131;42.694;23.350;2023-02-28T14:39:15;12.38;;;4.68;;
51082;SDS011;37131;42.694;23.350;2023-02-28T14:41:45;12.13;;;5.03;;
51082;SDS011;37131;42.694;23.350;2023-02-28T14:44:18;13.63;;;4.63;;
51082;SDS011;37131;42.694;23.350;2023-02-28T14:46:49;14.73;;;5.30;;
51082;SDS011;37131;42.694;23.350;2023-02-28T14:49:21;12.32;;;4.93;;
51082;SDS011;37131;42.694;23.350;2023-02-28T14:52:01;14.05;;;5.03;;
51082;SDS011;37131;42.694;23.350;2023-02-28T14:54:45;19.63;;;5.20;;
51082;SDS011;37131;42.694;23.350;2023-02-28T14:57:38;11.23;;;4.15;;
51082;SDS011;37131;42.694;23.350;2023-02-28T15:02:55;13.80;;;5.10;;
51082;SDS011;37131;42.694;23.350;2023-02-28T15:05:23;18.83;;;5.25;;
51082;SDS011;37131;42.694;23.350;2023-02-28T15:08:05;14.50;;;4.63;;
51082;SDS011;37131;42.694;23.350;2023-02-28T15:10:37;17.23;;;5.82;;
51082;SDS011;37131;42.694;23.350;2023-02-28T15:13:06;18.98;;;5.70;;
51082;SDS011;37131;42.694;23.350;2023-02-28T15:15:52;10.20;;;4.00;;
51082;SDS011;37131;42.694;23.350;2023-02-28T15:18:32;11.30;;;4.50;;
51082;SDS011;37131;42.694;23.350;2023-02-28T15:23:51;13.43;;;4.47;;
51082;SDS011;37131;42.694;23.350;2023-02-28T15:26:20;12.30;;;4.28;;
51082;SDS011;37131;42.694;23.350;2023-02-28T15:28:55;14.98;;;4.53;;
51082;SDS011;37131;42.694;23.350;2023-02-28T15:31:43;10.45;;;5.00;;
51082;SDS011;37131;42.694;23.350;2023-02-28T15:34:18;14.48;;;5.13;;
51082;SDS011;37131;42.694;23.350;2023-02-28T15:39:18;13.70;;;5.57;;
51082;SDS011;37131;42.694;23.350;2023-02-28T15:41:45;16.98;;;5.50;;
51082;SDS011;37131;42.694;23.350;2023-02-28T15:44:23;19.23;;;6.50;;
51082;SDS011;37131;42.694;23.350;2023-02-28T15:46:57;14.25;;;5.88;;
51082;SDS011;37131;42.694;23.350;2023-02-28T15:49:23;12.07;;;4.82;;
51082;SDS011;37131;42.694;23.350;2023-02-28T15:51:50;15.70;;;5.88;;
51082;SDS011;37131;42.694;23.350;2023-02-28T15:54:24;14.48;;;5.40;;
51082;SDS011;37131;42.694;23.350;2023-02-28T15:56:58;18.17;;;5.55;;
51082;SDS011;37131;42.694;23.350;2023-02-28T15:59:33;12.45;;;5.07;;
51082;SDS011;37131;42.694;23.350;2023-02-28T16:02:14;11.98;;;4.88;;
51082;SDS011;37131;42.694;23.350;2023-02-28T16:07:27;14.60;;;5.53;;
51082;SDS011;37131;42.694;23.350;2023-02-28T16:09:54;8.35;;;3.92;;
51082;SDS011;37131;42.694;23.350;2023-02-28T16:12:20;11.18;;;4.30;;
51082;SDS011;37131;42.694;23.350;2023-02-28T16:14:51;11.23;;;4.57;;
51082;SDS011;37131;42.694;23.350;2023-02-28T16:17:24;10.23;;;4.13;;
51082;SDS011;37131;42.694;23.350;2023-02-28T16:19:52;12.77;;;4.00;;
51082;SDS011;37131;42.694;23.350;2023-02-28T16:22:18;9.88;;;4.30;;
51082;SDS011;37131;42.694;23.350;2023-02-28T16:24:44;10.05;;;3.63;;
51082;SDS011;37131;42.694;23.350;2023-02-28T16:27:14;8.15;;;3.10;;
51082;SDS011;37131;42.694;23.350;2023-02-28T16:29:43;8.77;;;3.08;;
51082;SDS011;37131;42.694;23.350;2023-02-28T16:32:10;8.55;;;3.47;;
51082;SDS011;37131;42.694;23.350;2023-02-28T16:34:39;9.13;;;3.50;;
51082;SDS011;37131;42.694;23.350;2023-02-28T16:37:07;8.55;;;3.53;;
51082;SDS011;37131;42.694;23.350;2023-02-28T16:39:39;9.75;;;3.35;;
51082;SDS011;37131;42.694;23.350;2023-02-28T16:42:13;8.10;;;3.33;;
51082;SDS011;37131;42.694;23.350;2023-02-28T16:44:43;11.13;;;3.35;;
51082;SDS011;37131;42.694;23.350;2023-02-28T16:47:09;7.97;;;3.58;;
51082;SDS011;37131;42.694;23.350;2023-02-28T16:49:36;8.70;;;3.25;;
51082;SDS011;37131;42.694;23.350;2023-02-28T16:52:02;8.65;;;3.45;;
51082;SDS011;37131;42.694;23.350;2023-02-28T16:54:27;8.60;;;2.80;;
51082;SDS011;37131;42.694;23.350;2023-02-28T16:56:52;7.35;;;3.15;;
51082;SDS011;37131;42.694;23.350;2023-02-28T16:59:19;9.77;;;3.72;;
51082;SDS011;37131;42.694;23.350;2023-02-28T17:01:48;9.73;;;3.25;;
51082;SDS011;37131;42.694;23.350;2023-02-28T17:04:14;6.85;;;3.03;;
51082;SDS011;37131;42.694;23.350;2023-02-28T17:06:40;10.20;;;3.13;;
51082;SDS011;37131;42.694;23.350;2023-02-28T17:09:08;8.45;;;2.72;;
51082;SDS011;37131;42.694;23.350;2023-02-28T17:11:41;14.90;;;2.85;;
51082;SDS011;37131;42.694;23.350;2023-02-28T17:14:06;9.32;;;3.30;;